createdAt,value
2018-08-31T00:02:31.565Z,99107.00
2018-08-31T00:05:49.089Z,99101.00
2018-08-31T00:08:44.992Z,99112.00
2018-08-31T00:11:29.608Z,99112.00
2018-08-31T00:13:58.816Z,99114.00
2018-08-31T00:16:29.844Z,99111.00
2018-08-31T00:19:00.200Z,99112.00
2018-08-31T00:21:29.356Z,99110.00
2018-08-31T00:25:16.689Z,99115.00
2018-08-31T00:28:03.439Z,99112.00
2018-08-31T00:31:54.025Z,99114.00
2018-08-31T00:37:03.888Z,99119.00
2018-08-31T00:39:54.664Z,99111.00
2018-08-31T00:42:37.232Z,99118.00
2018-08-31T00:45:25.732Z,99116.00
2018-08-31T00:47:55.601Z,99118.00
2018-08-31T00:50:24.720Z,99115.00
2018-08-31T00:52:53.840Z,99110.00
2018-08-31T00:55:23.352Z,99104.00
2018-08-31T00:57:53.079Z,99100.00
2018-08-31T01:00:22.454Z,99095.00
2018-08-31T01:02:51.719Z,99091.00
2018-08-31T01:05:21.120Z,99081.00
2018-08-31T01:07:50.560Z,99079.00
2018-08-31T01:10:21.564Z,99078.00
2018-08-31T01:12:51.165Z,99077.00
2018-08-31T01:15:20.332Z,99087.00
2018-08-31T01:17:49.860Z,99088.00
2018-08-31T01:20:19.001Z,99086.00
2018-08-31T01:22:48.128Z,99088.00
2018-08-31T01:25:17.662Z,99089.00
2018-08-31T01:27:47.136Z,99088.00
2018-08-31T01:30:16.220Z,99087.00
2018-08-31T01:32:45.520Z,99085.00
2018-08-31T01:35:14.708Z,99085.00
2018-08-31T01:37:43.901Z,99083.00
2018-08-31T01:40:13.052Z,99087.00
2018-08-31T01:42:42.093Z,99081.00
2018-08-31T01:45:11.520Z,99078.00
2018-08-31T01:47:41.012Z,99074.00
2018-08-31T01:50:10.352Z,99078.00
2018-08-31T01:52:39.827Z,99079.00
2018-08-31T01:55:09.248Z,99079.00
2018-08-31T01:57:38.384Z,99081.00
2018-08-31T02:00:08.324Z,99078.00
2018-08-31T02:02:37.572Z,99079.00
2018-08-31T02:05:07.048Z,99074.00
2018-08-31T02:07:36.120Z,99073.00
2018-08-31T02:10:06.148Z,99072.00
2018-08-31T02:12:35.232Z,99068.00
2018-08-31T02:15:04.584Z,99066.00
2018-08-31T02:17:33.948Z,99059.00
2018-08-31T02:20:03.128Z,99057.00
2018-08-31T02:22:32.228Z,99057.00
2018-08-31T02:25:01.643Z,99061.00
2018-08-31T02:27:30.856Z,99056.00
2018-08-31T02:30:00.139Z,99054.00
2018-08-31T02:32:29.572Z,99059.00
2018-08-31T02:34:58.754Z,99056.00
2018-08-31T02:37:27.793Z,99055.00
2018-08-31T02:39:57.897Z,99057.00
2018-08-31T02:42:27.094Z,99057.00
2018-08-31T02:44:56.260Z,99055.00
2018-08-31T02:47:25.344Z,99054.00
2018-08-31T02:49:54.452Z,99056.00
2018-08-31T02:52:23.652Z,99058.00
2018-08-31T02:54:52.837Z,99055.00
2018-08-31T02:57:21.948Z,99052.00
2018-08-31T02:59:51.028Z,99051.00
2018-08-31T03:02:21.084Z,99054.00
2018-08-31T03:04:50.396Z,99055.00
2018-08-31T03:07:19.568Z,99057.00
2018-08-31T03:09:48.692Z,99059.00
2018-08-31T03:12:17.848Z,99057.00
2018-08-31T03:14:47.024Z,99057.00
2018-08-31T03:17:16.588Z,99051.00
2018-08-31T03:19:45.776Z,99052.00
2018-08-31T03:22:14.844Z,99045.00
2018-08-31T03:24:44.129Z,99039.00
2018-08-31T03:27:13.242Z,99036.00
2018-08-31T03:29:42.576Z,99036.00
2018-08-31T03:32:12.224Z,99028.00
2018-08-31T03:34:41.248Z,99027.00
2018-08-31T03:37:10.417Z,99029.00
2018-08-31T03:39:40.381Z,99026.00
2018-08-31T03:42:09.528Z,99023.00
2018-08-31T03:44:38.676Z,99018.00
2018-08-31T03:47:08.081Z,99019.00
2018-08-31T03:49:37.173Z,99019.00
2018-08-31T03:52:06.345Z,99028.00
2018-08-31T03:54:36.451Z,99031.00
2018-08-31T03:57:05.697Z,99039.00
2018-08-31T03:59:36.164Z,99039.00
2018-08-31T04:02:06.008Z,99037.00
2018-08-31T04:04:35.158Z,99038.00
2018-08-31T04:07:04.286Z,99034.00
2018-08-31T04:09:34.640Z,99036.00
2018-08-31T04:12:03.632Z,99044.00
2018-08-31T04:14:32.785Z,99047.00
2018-08-31T04:17:02.404Z,99049.00
2018-08-31T04:19:33.084Z,99053.00
2018-08-31T04:22:02.120Z,99051.00
2018-08-31T04:24:31.830Z,99054.00
2018-08-31T04:27:00.978Z,99059.00
2018-08-31T04:29:30.149Z,99056.00
2018-08-31T04:32:00.192Z,99059.00
2018-08-31T04:34:29.367Z,99058.00
2018-08-31T04:36:58.564Z,99052.00
2018-08-31T04:39:27.995Z,99059.00
2018-08-31T04:41:57.164Z,99053.00
2018-08-31T04:44:26.288Z,99059.00
2018-08-31T04:46:56.097Z,99063.00
2018-08-31T04:49:25.296Z,99061.00
2018-08-31T04:51:55.104Z,99074.00
2018-08-31T04:54:24.292Z,99068.00
2018-08-31T04:56:53.476Z,99071.00
2018-08-31T04:59:24.500Z,99068.00
2018-08-31T05:01:53.689Z,99067.00
2018-08-31T05:04:23.133Z,99067.00
2018-08-31T05:06:52.369Z,99061.00
2018-08-31T05:09:23.268Z,99069.00
2018-08-31T05:11:52.429Z,99066.00
2018-08-31T05:14:21.548Z,99069.00
2018-08-31T05:16:50.968Z,99066.00
2018-08-31T05:19:20.127Z,99071.00
2018-08-31T05:21:49.313Z,99068.00
2018-08-31T05:24:19.039Z,99066.00
2018-08-31T05:26:48.235Z,99067.00
2018-08-31T05:29:17.791Z,99067.00
2018-08-31T05:31:47.700Z,99069.00
2018-08-31T05:34:17.684Z,99068.00
2018-08-31T05:36:47.223Z,99074.00
2018-08-31T05:39:17.392Z,99068.00
2018-08-31T05:41:47.257Z,99074.00
2018-08-31T05:44:17.064Z,99071.00
2018-08-31T05:46:50.556Z,99072.00
2018-08-31T05:49:20.480Z,99076.00
2018-08-31T05:51:50.458Z,99075.00
2018-08-31T05:54:20.924Z,99080.00
2018-08-31T05:56:50.541Z,99086.00
2018-08-31T05:59:21.576Z,99083.00
2018-08-31T06:01:50.683Z,99085.00
2018-08-31T06:04:20.245Z,99090.00
2018-08-31T06:06:49.772Z,99089.00
2018-08-31T06:09:18.848Z,99095.00
2018-08-31T06:11:47.973Z,99091.00
2018-08-31T06:14:17.576Z,99092.00
2018-08-31T06:16:46.749Z,99090.00
2018-08-31T06:19:15.944Z,99089.00
2018-08-31T06:21:45.584Z,99090.00
2018-08-31T06:24:14.624Z,99089.00
2018-08-31T06:26:44.388Z,99093.00
2018-08-31T06:29:13.712Z,99087.00
2018-08-31T06:31:42.832Z,99084.00
2018-08-31T06:34:12.696Z,99077.00
2018-08-31T06:36:41.844Z,99080.00
2018-08-31T06:39:11.016Z,99080.00
2018-08-31T06:41:40.112Z,99075.00
2018-08-31T06:44:10.709Z,99078.00
2018-08-31T06:46:40.809Z,99080.00
2018-08-31T06:49:11.236Z,99080.00
2018-08-31T06:51:40.301Z,99073.00
2018-08-31T06:54:10.977Z,99074.00
2018-08-31T06:56:48.399Z,99076.00
2018-08-31T06:59:18.755Z,99068.00
2018-08-31T07:01:48.152Z,99071.00
2018-08-31T07:04:17.980Z,99071.00
2018-08-31T07:06:47.588Z,99070.00
2018-08-31T07:09:16.667Z,99069.00
2018-08-31T07:11:46.735Z,99063.00
2018-08-31T07:14:15.912Z,99059.00
2018-08-31T07:16:46.060Z,99061.00
2018-08-31T07:19:16.217Z,99055.00
2018-08-31T07:21:46.500Z,99058.00
2018-08-31T07:24:20.757Z,99056.00
2018-08-31T07:26:50.982Z,99052.00
2018-08-31T07:29:20.768Z,99054.00
2018-08-31T07:31:49.804Z,99044.00
2018-08-31T07:34:19.405Z,99051.00
2018-08-31T07:36:48.548Z,99046.00
2018-08-31T07:39:17.849Z,99049.00
2018-08-31T07:41:47.884Z,99048.00
2018-08-31T07:44:17.036Z,99043.00
2018-08-31T07:46:48.213Z,99046.00
2018-08-31T07:49:17.246Z,99045.00
2018-08-31T07:51:47.908Z,99042.00
2018-08-31T07:54:18.800Z,99046.00
2018-08-31T07:56:47.916Z,99050.00
2018-08-31T07:59:17.844Z,99040.00
2018-08-31T08:01:47.285Z,99042.00
2018-08-31T08:04:17.028Z,99047.00
2018-08-31T08:06:46.360Z,99051.00
2018-08-31T08:09:15.759Z,99044.00
2018-08-31T08:11:44.845Z,99044.00
2018-08-31T08:14:13.992Z,99044.00
2018-08-31T08:16:43.333Z,99046.00
2018-08-31T08:19:13.108Z,99043.00
2018-08-31T08:21:42.272Z,99040.00
2018-08-31T08:24:11.412Z,99042.00
2018-08-31T08:26:41.816Z,99039.00
2018-08-31T08:29:14.568Z,99050.00
2018-08-31T08:31:43.674Z,99043.00
2018-08-31T08:34:14.193Z,99044.00
2018-08-31T08:36:43.348Z,99049.00
2018-08-31T08:39:12.432Z,99052.00
2018-08-31T08:41:41.669Z,99050.00
2018-08-31T08:44:11.358Z,99015.00
2018-08-31T08:46:41.086Z,99047.00
2018-08-31T08:49:10.413Z,99040.00
2018-08-31T08:51:39.443Z,99040.00
2018-08-31T08:54:09.416Z,99052.00
2018-08-31T08:56:39.540Z,99052.00
2018-08-31T08:59:10.540Z,99049.00
2018-08-31T09:01:40.533Z,99051.00
2018-08-31T09:04:11.044Z,99056.00
2018-08-31T09:06:40.768Z,99060.00
2018-08-31T09:09:11.095Z,99054.00
2018-08-31T09:11:41.528Z,99053.00
2018-08-31T09:14:11.566Z,99056.00
2018-08-31T09:16:40.680Z,99058.00
2018-08-31T09:19:11.003Z,99058.00
2018-08-31T09:21:40.125Z,99056.00
2018-08-31T09:24:11.121Z,99053.00
2018-08-31T09:26:40.444Z,99052.00
2018-08-31T09:29:09.536Z,99052.00
2018-08-31T09:31:38.860Z,99049.00
2018-08-31T09:34:08.088Z,99052.00
2018-08-31T09:36:37.256Z,99055.00
2018-08-31T09:39:09.408Z,99049.00
2018-08-31T09:41:38.595Z,99048.00
2018-08-31T09:44:09.148Z,99042.00
2018-08-31T09:46:38.261Z,99034.00
2018-08-31T09:49:08.175Z,99028.00
2018-08-31T09:51:38.261Z,99019.00
2018-08-31T09:54:07.411Z,99020.00
2018-08-31T09:56:37.995Z,99016.00
2018-08-31T09:59:07.188Z,99022.00
2018-08-31T10:01:37.907Z,99026.00
2018-08-31T10:04:09.056Z,99025.00
2018-08-31T10:06:38.204Z,99024.00
2018-08-31T10:09:09.756Z,99026.00
2018-08-31T10:11:39.436Z,99035.00
2018-08-31T10:14:08.688Z,99030.00
2018-08-31T10:16:38.233Z,99040.00
2018-08-31T10:19:08.248Z,99035.00
2018-08-31T10:21:37.448Z,99035.00
2018-08-31T10:24:06.957Z,99035.00
2018-08-31T10:26:36.413Z,99029.00
2018-08-31T10:29:06.016Z,99019.00
2018-08-31T10:31:35.476Z,99018.00
2018-08-31T10:34:06.469Z,99013.00
2018-08-31T10:36:36.305Z,99010.00
2018-08-31T10:39:12.000Z,99003.00
2018-08-31T10:41:41.813Z,99006.00
2018-08-31T10:44:12.268Z,99004.00
2018-08-31T10:46:42.827Z,99003.00
2018-08-31T10:49:12.025Z,98996.00
2018-08-31T10:51:42.052Z,98995.00
2018-08-31T10:54:12.109Z,98980.00
2018-08-31T10:56:42.396Z,98990.00
2018-08-31T10:59:19.314Z,98994.00
2018-08-31T11:01:49.636Z,98986.00
2018-08-31T11:04:19.737Z,98980.00
2018-08-31T11:06:49.720Z,98972.00
2018-08-31T11:09:19.705Z,98984.00
2018-08-31T11:11:48.875Z,98984.00
2018-08-31T11:14:18.976Z,98988.00
2018-08-31T11:16:48.160Z,98999.00
2018-08-31T11:19:20.728Z,98999.00
2018-08-31T11:21:49.949Z,99002.00
2018-08-31T11:24:19.477Z,99008.00
2018-08-31T11:26:48.893Z,99000.00
2018-08-31T11:29:18.361Z,98995.00
2018-08-31T11:31:47.891Z,98985.00
2018-08-31T11:34:17.070Z,98987.00
2018-08-31T11:36:47.684Z,98989.00
2018-08-31T11:39:16.848Z,98989.00
2018-08-31T11:41:49.137Z,98975.00
2018-08-31T11:44:18.200Z,98981.00
2018-08-31T11:46:47.340Z,98982.00
2018-08-31T11:49:16.531Z,98991.00
2018-08-31T11:51:45.675Z,98997.00
2018-08-31T11:54:15.433Z,98998.00
2018-08-31T11:56:44.777Z,98997.00
2018-08-31T11:59:15.161Z,99000.00
2018-08-31T12:01:44.407Z,98999.00
2018-08-31T12:04:14.196Z,98999.00
2018-08-31T12:06:44.321Z,98996.00
2018-08-31T12:09:14.206Z,98988.00
2018-08-31T12:11:43.660Z,98987.00
2018-08-31T12:14:16.360Z,98986.00
2018-08-31T12:16:45.723Z,98986.00
2018-08-31T12:19:14.782Z,98992.00
2018-08-31T12:21:44.816Z,98997.00
2018-08-31T12:24:13.928Z,98992.00
2018-08-31T12:26:43.120Z,98981.00
2018-08-31T12:29:12.316Z,98976.00
2018-08-31T12:31:41.495Z,98981.00
2018-08-31T12:34:11.840Z,98980.00
2018-08-31T12:36:41.836Z,98973.00
2018-08-31T12:39:12.196Z,98971.00
2018-08-31T12:41:42.609Z,98972.00
2018-08-31T12:44:11.901Z,98978.00
2018-08-31T12:46:41.812Z,98978.00
2018-08-31T12:49:11.828Z,98982.00
2018-08-31T12:51:40.820Z,98986.00
2018-08-31T12:54:10.009Z,98979.00
2018-08-31T12:56:39.449Z,98979.00
2018-08-31T12:59:09.119Z,98977.00
2018-08-31T13:01:38.356Z,98976.00
2018-08-31T13:04:08.069Z,98970.00
2018-08-31T13:06:37.452Z,98969.00
2018-08-31T13:09:07.764Z,98965.00
2018-08-31T13:11:37.516Z,98966.00
2018-08-31T13:14:06.788Z,98973.00
2018-08-31T13:16:35.884Z,98971.00
2018-08-31T13:19:05.816Z,98968.00
2018-08-31T13:21:34.996Z,98962.00
2018-08-31T13:24:04.186Z,98962.00
2018-08-31T13:26:33.583Z,98966.00
2018-08-31T13:29:02.772Z,98971.00
2018-08-31T13:31:32.957Z,98972.00
2018-08-31T13:34:02.548Z,98972.00
2018-08-31T13:36:31.604Z,98970.00
2018-08-31T13:39:00.814Z,98965.00
2018-08-31T13:41:29.880Z,98967.00
2018-08-31T13:43:59.237Z,98969.00
2018-08-31T13:46:28.245Z,98966.00
2018-08-31T13:48:58.040Z,98971.00
2018-08-31T13:51:28.352Z,98972.00
2018-08-31T13:53:57.565Z,98975.00
2018-08-31T13:56:26.608Z,98976.00
2018-08-31T13:58:55.714Z,98982.00
2018-08-31T14:01:24.824Z,98984.00
2018-08-31T14:03:54.018Z,98978.00
2018-08-31T14:06:23.244Z,98988.00
2018-08-31T14:08:52.649Z,98985.00
2018-08-31T14:11:21.803Z,98983.00
2018-08-31T14:13:51.164Z,98984.00
2018-08-31T14:16:20.540Z,98985.00
2018-08-31T14:18:49.696Z,98990.00
2018-08-31T14:21:19.212Z,98995.00
2018-08-31T14:23:48.299Z,98987.00
2018-08-31T14:26:17.344Z,98990.00
2018-08-31T14:28:46.936Z,98986.00
2018-08-31T14:31:16.097Z,98984.00
2018-08-31T14:33:45.215Z,98983.00
2018-08-31T14:36:14.644Z,98980.00
2018-08-31T14:38:44.580Z,98994.00
2018-08-31T14:41:13.732Z,98985.00
2018-08-31T14:43:43.632Z,98983.00
2018-08-31T14:46:14.480Z,98977.00
2018-08-31T14:48:44.269Z,98973.00
2018-08-31T14:51:13.465Z,98981.00
2018-08-31T14:53:42.797Z,98976.00
2018-08-31T14:56:12.184Z,98972.00
2018-08-31T14:58:42.220Z,98974.00
2018-08-31T15:01:11.280Z,98973.00
2018-08-31T15:03:40.633Z,98965.00
2018-08-31T15:06:10.344Z,98966.00
2018-08-31T15:08:39.531Z,98964.00
2018-08-31T15:11:08.725Z,98956.00
2018-08-31T15:13:37.780Z,98961.00
2018-08-31T15:16:06.840Z,98967.00
2018-08-31T15:18:36.728Z,98966.00
2018-08-31T15:21:05.983Z,98969.00
2018-08-31T15:23:35.626Z,98971.00
2018-08-31T15:26:05.009Z,98969.00
2018-08-31T15:28:35.068Z,98968.00
2018-08-31T15:31:04.236Z,98965.00
2018-08-31T15:33:33.464Z,98964.00
2018-08-31T15:36:02.608Z,98957.00
2018-08-31T15:38:31.640Z,98953.00
2018-08-31T15:41:01.760Z,98951.00
2018-08-31T15:43:31.816Z,98943.00
2018-08-31T15:46:00.976Z,98943.00
2018-08-31T15:48:30.469Z,98947.00
2018-08-31T15:51:00.325Z,98952.00
2018-08-31T15:53:29.576Z,98955.00
2018-08-31T15:55:58.714Z,98951.00
2018-08-31T15:58:27.847Z,98955.00
2018-08-31T16:00:56.884Z,98952.00
2018-08-31T16:03:26.356Z,98950.00
2018-08-31T16:05:55.672Z,98952.00
2018-08-31T16:08:24.820Z,98959.00
2018-08-31T16:10:54.860Z,98958.00
2018-08-31T16:13:25.020Z,98956.00
2018-08-31T16:15:54.236Z,98949.00
2018-08-31T16:18:24.191Z,98952.00
2018-08-31T16:20:53.947Z,98957.00
2018-08-31T16:23:23.144Z,98959.00
2018-08-31T16:25:52.300Z,98955.00
2018-08-31T16:28:22.736Z,98955.00
2018-08-31T16:30:51.861Z,98955.00
2018-08-31T16:33:22.507Z,98954.00
2018-08-31T16:35:51.645Z,98956.00
2018-08-31T16:38:21.564Z,98962.00
2018-08-31T16:40:50.684Z,98963.00
2018-08-31T16:43:19.872Z,98969.00
2018-08-31T16:45:49.917Z,98971.00
2018-08-31T16:48:19.054Z,98970.00
2018-08-31T16:50:48.168Z,98969.00
2018-08-31T16:53:17.290Z,98977.00
2018-08-31T16:55:46.413Z,98971.00
2018-08-31T16:58:15.608Z,98981.00
2018-08-31T17:00:44.911Z,98982.00
2018-08-31T17:03:14.050Z,98978.00
2018-08-31T17:05:43.132Z,98982.00
2018-08-31T17:08:12.276Z,98985.00
2018-08-31T17:10:41.496Z,98984.00
2018-08-31T17:13:11.432Z,98987.00
2018-08-31T17:15:40.879Z,98984.00
2018-08-31T17:18:10.064Z,98992.00
2018-08-31T17:20:39.260Z,98996.00
2018-08-31T17:23:09.067Z,98996.00
2018-08-31T17:25:38.161Z,99000.00
2018-08-31T17:28:13.036Z,98997.00
2018-08-31T17:30:42.193Z,98999.00
2018-08-31T17:33:16.712Z,98998.00
2018-08-31T17:35:51.116Z,99002.00
2018-08-31T17:38:20.668Z,99001.00
2018-08-31T17:40:49.739Z,99002.00
2018-08-31T17:43:18.885Z,99004.00
2018-08-31T17:45:49.708Z,99010.00
2018-08-31T17:48:18.936Z,99008.00
2018-08-31T17:50:48.090Z,99010.00
2018-08-31T17:53:17.516Z,99019.00
2018-08-31T17:55:46.923Z,99021.00
2018-08-31T17:58:16.070Z,99020.00
2018-08-31T18:00:45.183Z,99021.00
2018-08-31T18:03:15.156Z,99020.00
2018-08-31T18:05:44.300Z,99026.00
2018-08-31T18:08:13.424Z,99024.00
2018-08-31T18:10:42.592Z,99033.00
2018-08-31T18:13:11.668Z,99038.00
2018-08-31T18:15:41.712Z,99048.00
2018-08-31T18:18:10.877Z,99051.00
2018-08-31T18:20:39.976Z,99052.00
2018-08-31T18:23:09.312Z,99054.00
2018-08-31T18:25:38.328Z,99057.00
2018-08-31T18:28:07.496Z,99058.00
2018-08-31T18:30:36.709Z,99060.00
2018-08-31T18:33:05.973Z,99062.00
2018-08-31T18:35:35.037Z,99064.00
2018-08-31T18:38:04.389Z,99076.00
2018-08-31T18:40:33.816Z,99084.00
2018-08-31T18:43:02.936Z,99085.00
2018-08-31T18:45:32.152Z,99094.00
2018-08-31T18:48:01.280Z,99100.00
2018-08-31T18:50:31.487Z,99106.00
2018-08-31T18:53:00.844Z,99106.00
2018-08-31T18:55:29.984Z,99109.00
2018-08-31T18:57:59.900Z,99104.00
2018-08-31T19:00:28.978Z,99108.00
2018-08-31T19:02:58.816Z,99115.00
2018-08-31T19:05:28.004Z,99114.00
2018-08-31T19:07:57.849Z,99118.00
2018-08-31T19:10:28.272Z,99123.00
2018-08-31T19:12:57.392Z,99122.00
2018-08-31T19:15:26.628Z,99121.00
2018-08-31T19:17:56.361Z,99128.00
2018-08-31T19:20:25.696Z,99133.00
2018-08-31T19:22:54.948Z,99133.00
2018-08-31T19:25:25.413Z,99137.00
2018-08-31T19:27:54.816Z,99144.00
2018-08-31T19:30:23.912Z,99136.00
2018-08-31T19:32:53.829Z,99133.00
2018-08-31T19:35:23.128Z,99139.00
2018-08-31T19:37:52.131Z,99134.00
2018-08-31T19:40:21.588Z,99140.00
2018-08-31T19:42:50.688Z,99145.00
2018-08-31T19:45:19.862Z,99144.00
2018-08-31T19:47:49.589Z,99147.00
2018-08-31T19:50:18.612Z,99148.00
2018-08-31T19:52:47.688Z,99147.00
2018-08-31T19:55:17.109Z,99152.00
2018-08-31T19:57:47.182Z,99153.00
2018-08-31T20:00:16.328Z,99160.00
2018-08-31T20:02:45.507Z,99159.00
2018-08-31T20:05:15.497Z,99162.00
2018-08-31T20:07:47.513Z,99164.00
2018-08-31T20:10:16.616Z,99160.00
2018-08-31T20:12:46.697Z,99166.00
2018-08-31T20:15:16.424Z,99171.00
2018-08-31T20:17:45.628Z,99169.00
2018-08-31T20:20:14.775Z,99176.00
2018-08-31T20:22:44.489Z,99183.00
2018-08-31T20:25:13.740Z,99183.00
2018-08-31T20:27:44.113Z,99181.00
2018-08-31T20:30:14.551Z,99185.00
2018-08-31T20:32:43.730Z,99184.00
2018-08-31T20:35:12.860Z,99190.00
2018-08-31T20:37:43.004Z,99184.00
2018-08-31T20:40:12.176Z,99189.00
2018-08-31T20:42:41.343Z,99186.00
2018-08-31T20:45:10.729Z,99183.00
2018-08-31T20:47:39.949Z,99189.00
2018-08-31T20:50:09.160Z,99194.00
2018-08-31T20:52:38.264Z,99199.00
2018-08-31T20:55:07.466Z,99195.00
2018-08-31T20:57:36.743Z,99198.00
2018-08-31T21:00:06.767Z,99195.00
2018-08-31T21:02:35.986Z,99197.00
2018-08-31T21:05:05.045Z,99201.00
2018-08-31T21:07:34.404Z,99203.00
2018-08-31T21:10:03.704Z,99208.00
2018-08-31T21:12:34.411Z,99208.00
2018-08-31T21:15:04.111Z,99218.00
2018-08-31T21:17:33.216Z,99215.00
2018-08-31T21:20:02.696Z,99216.00
2018-08-31T21:22:32.212Z,99217.00
2018-08-31T21:25:01.320Z,99215.00
2018-08-31T21:27:30.405Z,99215.00
2018-08-31T21:29:59.908Z,99220.00
2018-08-31T21:32:29.952Z,99221.00
2018-08-31T21:34:59.589Z,99222.00
2018-08-31T21:37:28.965Z,99227.00
2018-08-31T21:39:58.115Z,99221.00
2018-08-31T21:42:27.269Z,99224.00
2018-08-31T21:44:56.564Z,99227.00
2018-08-31T21:47:25.692Z,99228.00
2018-08-31T21:49:54.832Z,99231.00
2018-08-31T21:52:23.962Z,99232.00
2018-08-31T21:54:53.111Z,99230.00
2018-08-31T21:57:24.055Z,99230.00
2018-08-31T21:59:53.446Z,99231.00
2018-08-31T22:02:22.544Z,99237.00
2018-08-31T22:04:51.886Z,99239.00
2018-08-31T22:07:21.042Z,99235.00
2018-08-31T22:09:50.264Z,99228.00
2018-08-31T22:12:19.743Z,99231.00
2018-08-31T22:14:48.954Z,99225.00
2018-08-31T22:17:18.130Z,99225.00
2018-08-31T22:19:47.581Z,99223.00
2018-08-31T22:22:16.739Z,99228.00
2018-08-31T22:24:46.498Z,99230.00
2018-08-31T22:27:15.861Z,99227.00
2018-08-31T22:29:44.961Z,99219.00
2018-08-31T22:32:14.287Z,99227.00
2018-08-31T22:34:43.696Z,99228.00
2018-08-31T22:37:12.744Z,99227.00
2018-08-31T22:39:41.860Z,99229.00
2018-08-31T22:42:11.380Z,99227.00
2018-08-31T22:44:40.848Z,99221.00
2018-08-31T22:47:11.860Z,99226.00
2018-08-31T22:49:40.992Z,99229.00
2018-08-31T22:52:10.056Z,99230.00
2018-08-31T22:54:39.191Z,99231.00
2018-08-31T22:57:08.688Z,99227.00
2018-08-31T22:59:38.115Z,99234.00
2018-08-31T23:02:07.181Z,99238.00
2018-08-31T23:04:36.592Z,99233.00
2018-08-31T23:07:08.327Z,99233.00
2018-08-31T23:09:37.444Z,99236.00
2018-08-31T23:12:06.651Z,99235.00
2018-08-31T23:14:35.685Z,99228.00
2018-08-31T23:17:07.144Z,99222.00
2018-08-31T23:19:36.275Z,99224.00
2018-08-31T23:22:06.624Z,99220.00
2018-08-31T23:24:36.147Z,99222.00
2018-08-31T23:27:06.184Z,99221.00
2018-08-31T23:29:35.316Z,99222.00
2018-08-31T23:32:04.978Z,99224.00
2018-08-31T23:34:34.120Z,99229.00
2018-08-31T23:37:03.237Z,99227.00
2018-08-31T23:39:32.492Z,99231.00
2018-08-31T23:42:01.612Z,99226.00
2018-08-31T23:44:30.733Z,99216.00
2018-08-31T23:47:00.327Z,99221.00
2018-08-31T23:49:29.513Z,99223.00
2018-08-31T23:51:58.836Z,99224.00
2018-08-31T23:54:29.029Z,99229.00
2018-08-31T23:56:58.380Z,99232.00
2018-08-31T23:59:27.558Z,99237.00
